createdAt,value
2023-01-10T00:01:15.714Z,9.520535971788922
2023-01-10T00:04:16.178Z,9.50062555138511
2023-01-10T00:07:16.030Z,9.470438793301946
2023-01-10T00:21:16.947Z,9.294456616375829
2023-01-10T00:24:18.997Z,9.24692864174467
2023-01-10T00:27:22.340Z,9.231514168833746
2023-01-10T00:31:16.880Z,9.189124381834699
2023-01-10T00:34:16.638Z,9.156368650902824
2023-01-10T00:37:16.297Z,9.10370259851561
2023-01-10T00:43:57.210Z,9.10434486726299
2023-01-10T00:44:16.146Z,9.081223195222265
2023-01-10T00:47:16.819Z,9.074800509590204
2023-01-10T00:51:15.871Z,9.07223143546471
2023-01-10T00:54:16.299Z,9.043329356566483
2023-01-10T00:57:16.295Z,8.981029351148754
2023-01-10T01:01:16.708Z,8.959834513699116
2023-01-10T01:04:17.223Z,8.912306714391253
2023-01-10T01:07:16.888Z,8.889185091299533
2023-01-10T01:11:16.299Z,8.831381059354408
2023-01-10T01:14:16.559Z,8.79348732506769
2023-01-10T01:17:17.458Z,8.779357462097323
2023-01-10T01:21:16.945Z,8.763300802302638
2023-01-10T01:24:16.586Z,8.715773105967765
2023-01-10T01:27:16.664Z,8.657326918939361
2023-01-10T01:31:16.137Z,8.62521364539316
2023-01-10T01:34:16.192Z,8.57704375639014
2023-01-10T01:37:16.710Z,8.484557641208903
2023-01-10T01:42:29.007Z,8.49932972272254
2023-01-10T01:44:18.586Z,8.445379523627707
2023-01-10T01:47:24.194Z,8.418404436112905
2023-01-10T01:51:21.004Z,8.363812021639841
2023-01-10T01:54:18.247Z,8.36445428514853
2023-01-10T01:57:20.636Z,8.285455907699452
2023-01-10T02:01:17.630Z,8.281602330071564
2023-01-10T02:04:19.945Z,8.234717148711571
2023-01-10T02:07:17.396Z,8.212237960763833
2023-01-10T02:11:16.240Z,8.195539139037374
2023-01-10T02:14:16.840Z,8.124890311902073
2023-01-10T02:17:16.439Z,8.090850442106966
2023-01-10T02:21:31.684Z,8.06837128981142
2023-01-10T02:41:26.161Z,7.7588018162286065
2023-01-10T02:44:22.424Z,7.720908530004453
2023-01-10T02:47:16.550Z,7.695860434241422
2023-01-10T02:51:19.710Z,7.640626196232279
2023-01-10T02:54:22.273Z,7.60016392694124
2023-01-10T02:57:32.034Z,7.519881700034693
2023-01-10T03:01:24.280Z,7.54428748949731
2023-01-10T03:04:24.307Z,7.494191402431261
2023-01-10T03:07:22.022Z,7.487768829167271
2023-01-10T03:11:16.169Z,7.433819231703183
2023-01-10T03:14:20.865Z,7.4415263150906865
2023-01-10T03:17:19.033Z,7.411340242229926
2023-01-10T03:21:18.110Z,7.374089357653065
2023-01-10T03:24:19.360Z,7.363813254255001
2023-01-10T03:27:24.267Z,7.315001779012164
2023-01-10T03:31:21.362Z,7.281604468980004
2023-01-10T03:34:16.951Z,7.253987471895471
2023-01-10T03:37:25.658Z,7.185908398714764
2023-01-10T03:41:21.884Z,7.133885745158477
2023-01-10T03:44:57.188Z,7.095350465463707
2023-01-10T03:47:23.704Z,7.015068685346432
2023-01-10T03:51:18.195Z,7.006719384293319
2023-01-10T03:54:17.081Z,6.961761622602353
2023-01-10T03:57:19.789Z,6.934786976283431
2023-01-10T04:01:18.291Z,6.916161629935322
2023-01-10T04:04:16.893Z,6.910381350811804
2023-01-10T04:07:16.765Z,6.93157570939884
2023-01-10T04:11:16.373Z,6.915519376681186
2023-01-10T04:14:16.895Z,6.893040515651319
2023-01-10T04:17:17.386Z,6.851936327031671
2023-01-10T04:21:16.403Z,6.8134011671173536
2023-01-10T04:24:16.519Z,6.814043419648442
2023-01-10T04:27:16.727Z,6.777435032634185
2023-01-10T04:31:15.923Z,6.7466069287133905
2023-01-10T04:34:16.461Z,6.742753416459982
2023-01-10T04:37:16.352Z,6.690088765404016
2023-01-10T04:41:15.568Z,6.693942275420068
2023-01-10T04:44:16.061Z,6.7305506287375465
2023-01-10T04:47:15.983Z,6.692657772063194
2023-01-10T04:51:16.573Z,6.751102693215944
2023-01-10T04:54:19.798Z,6.756882962189502
2023-01-10T04:57:18.723Z,6.779361789477116
2023-01-10T05:01:19.441Z,6.79541809809316
2023-01-10T05:04:18.871Z,6.7864265649180195
2023-01-10T05:07:16.506Z,6.802482874784618
2023-01-10T05:11:15.919Z,6.844229293739136
2023-01-10T05:14:16.379Z,6.810832157038476
2023-01-10T05:17:16.396Z,6.803767379696728
2023-01-10T05:21:16.492Z,6.844229293739136
2023-01-10T05:24:16.434Z,6.867350395581252
2023-01-10T05:27:17.065Z,6.891756009475012
2023-01-10T05:31:19.905Z,6.962403876183908
2023-01-10T05:34:19.127Z,7.001581353258007
2023-01-10T05:37:17.621Z,7.018279955186881
2023-01-10T05:41:18.100Z,7.087643411489262
2023-01-10T05:44:18.696Z,7.083789884747603
2023-01-10T05:47:16.989Z,7.083789884747603
2023-01-10T05:51:17.297Z,7.085716648097969
2023-01-10T05:54:16.603Z,7.1229674142495245
2023-01-10T05:57:16.403Z,7.137097019205339
2023-01-10T06:01:16.199Z,7.162787215672961
2023-01-10T06:04:16.341Z,7.158291430765894
2023-01-10T06:07:16.179Z,7.172421041224152
2023-01-10T06:11:16.425Z,7.184623888391161
2023-01-10T06:14:19.617Z,7.219947928918191
2023-01-10T06:17:16.711Z,7.1486576067153695
2023-01-10T06:21:16.230Z,7.191046440191076
2023-01-10T06:24:16.696Z,7.138381528855916
2023-01-10T06:27:16.638Z,7.096634974523113
2023-01-10T06:31:15.859Z,7.0202067171457205
2023-01-10T06:34:16.230Z,6.9540545799784015
2023-01-10T06:37:16.235Z,6.9245109226529165
2023-01-10T06:41:16.516Z,6.885975731906728
2023-01-10T06:44:16.717Z,6.895609528058503
2023-01-10T06:47:16.546Z,6.861570119568205
2023-01-10T06:51:19.155Z,6.847440557531445
2023-01-10T06:54:17.726Z,6.839091271907909
2023-01-10T06:57:16.510Z,6.83844901919947
2023-01-10T07:01:19.098Z,6.887260238001181
2023-01-10T07:04:16.998Z,6.934144722897417
2023-01-10T07:07:17.052Z,6.952770072938074
2023-01-10T07:11:16.517Z,7.02470249520884
2023-01-10T07:14:16.956Z,7.0658067621177905
2023-01-10T07:17:16.644Z,7.129389961683865
2023-01-10T07:21:18.479Z,7.1968267371998085
2023-01-10T07:24:16.375Z,7.274539654971977
2023-01-10T07:27:17.078Z,7.343903307234086
2023-01-10T07:31:17.590Z,7.440241801147295
2023-01-10T07:34:16.693Z,7.490337858418298
2023-01-10T07:37:16.627Z,7.526946533151204
2023-01-10T07:41:15.987Z,7.55392135556649
2023-01-10T07:44:16.410Z,7.614293606230058
2023-01-10T07:47:16.511Z,7.652829106386344
2023-01-10T07:51:15.943Z,7.715128199599076
2023-01-10T07:54:16.353Z,7.750452446717827
2023-01-10T07:57:16.589Z,7.774216038882969
2023-01-10T08:01:16.547Z,7.848718151971207
2023-01-10T08:04:16.590Z,7.918724503653721
2023-01-10T08:07:16.711Z,7.957260133140153
2023-01-10T08:11:15.835Z,8.056810585085714
2023-01-10T08:14:16.245Z,8.140946858692041
2023-01-10T08:17:16.239Z,8.196181401354625
2023-01-10T08:21:16.514Z,8.271326123864219
2023-01-10T08:24:16.823Z,8.35738938680306
2023-01-10T08:27:16.847Z,8.43317650685358
2023-01-10T08:31:16.459Z,8.510248219300502
2023-01-10T08:34:16.843Z,8.54685730565252
2023-01-10T08:37:16.602Z,8.584750936911679
2023-01-10T08:41:16.755Z,8.62136005333159
2023-01-10T08:44:18.172Z,8.665676371923563
2023-01-10T08:47:17.949Z,8.692009267138564
2023-01-10T08:51:16.740Z,8.742106015725586
2023-01-10T08:54:16.641Z,8.796056391298771
2023-01-10T08:57:16.535Z,8.786422393307385
2023-01-10T09:01:16.085Z,8.829454258923942
2023-01-10T09:04:17.418Z,8.900745902108701
2023-01-10T09:07:16.233Z,8.991305637755431
2023-01-10T09:11:16.144Z,9.08636134405533
2023-01-10T09:14:16.156Z,9.17435218798937
2023-01-10T09:17:16.415Z,9.227660551015287
2023-01-10T09:21:16.419Z,9.3811631207348
2023-01-10T09:24:16.809Z,9.451812926304502
2023-01-10T09:27:16.909Z,9.526316417240832
2023-01-10T09:31:16.641Z,9.6913804039159
2023-01-10T09:34:17.245Z,9.771022279226235
2023-01-10T09:37:17.149Z,9.882135657574782
2023-01-10T09:41:35.358Z,10.085094549720178
2023-01-10T09:44:19.668Z,10.200061971735341
2023-01-10T09:47:24.059Z,10.343289746010214
2023-01-10T09:51:29.924Z,10.53597320716517
2023-01-10T09:54:22.740Z,10.675347832488843
2023-01-10T09:57:20.371Z,10.814722671948493
2023-01-10T10:01:18.790Z,10.978504438989694
2023-01-10T10:04:22.829Z,11.07484679302579
2023-01-10T10:07:17.989Z,11.2116531115601
2023-01-10T10:11:33.545Z,11.255970695609358
2023-01-10T10:14:30.760Z,11.40626527229324
2023-01-10T10:17:31.133Z,11.55142180922885
2023-01-10T10:21:22.824Z,11.769157050132435
2023-01-10T10:24:36.013Z,11.927159941541413
2023-01-10T10:27:22.412Z,12.063967545423656
2023-01-10T10:31:27.650Z,12.358778998781144
2023-01-10T10:34:23.890Z,12.532840241317535
2023-01-10T10:37:21.598Z,12.718463115177382
2023-01-10T10:41:25.417Z,13.034472480003842
2023-01-10T10:44:30.865Z,13.178989324631402
2023-01-10T10:47:20.168Z,13.277260910477434
2023-01-10T10:51:23.013Z,13.425631937856087
2023-01-10T10:54:17.422Z,13.448754717224801
2023-01-10T10:57:18.410Z,13.565653303134969
2023-01-10T11:01:18.256Z,13.771189643614708
2023-01-10T11:04:20.750Z,13.951034323522254
2023-01-10T11:07:18.883Z,14.061510517949136
2023-01-10T11:11:21.043Z,14.356328462779583
2023-01-10T11:14:40.757Z,14.30173247478815
2023-01-10T11:17:21.285Z,14.367889970334454
2023-01-10T11:21:20.987Z,14.52846661649246
2023-01-10T11:24:22.070Z,14.69867817172817
2023-01-10T11:27:20.089Z,14.827782243576895
2023-01-10T11:31:25.905Z,14.872743903771426
2023-01-10T11:34:22.603Z,14.87659776139635
2023-01-10T11:37:20.688Z,14.989002014143988
2023-01-10T11:41:25.127Z,15.0930563608199
2023-01-10T11:44:20.203Z,15.197110826839708
2023-01-10T11:47:21.203Z,15.287676848108912
2023-01-10T11:51:21.291Z,15.324930982392198
2023-01-10T11:54:20.664Z,15.415497131258963
2023-01-10T11:57:20.872Z,15.458532141485284
2023-01-10T12:01:32.862Z,15.652511097677143
2023-01-10T12:04:18.053Z,15.651226467463948
2023-01-10T12:07:17.839Z,15.76234704816925
2023-01-10T12:11:25.197Z,15.883744832365574
2023-01-10T12:14:19.544Z,15.855482899845175
2023-01-10T12:17:22.477Z,15.946049578337988
2023-01-10T12:21:22.515Z,15.985873252817328
2023-01-10T12:24:23.704Z,16.082220924668945
2023-01-10T12:27:18.772Z,16.122686977357898
2023-01-10T12:31:16.199Z,16.11883306680038
2023-01-10T12:34:20.003Z,16.23958900873413
2023-01-10T12:37:21.374Z,16.34428710975335
2023-01-10T12:44:17.987Z,16.365483672518984
2023-01-10T12:47:27.872Z,16.445773727901177
2023-01-10T12:51:21.353Z,16.50936350218626
2023-01-10T12:54:22.411Z,16.601857798890798
2023-01-10T12:57:25.099Z,16.70462935026817
2023-01-10T13:01:19.115Z,16.750876586368484
2023-01-10T13:04:20.289Z,16.84272880575154
2023-01-10T13:07:17.712Z,16.953208521487248
2023-01-10T13:11:21.427Z,17.011660053415927
2023-01-10T13:14:22.126Z,17.025148873824218
2023-01-10T13:17:33.468Z,16.99752891037724
2023-01-10T13:21:18.211Z,17.022579574544217
2023-01-10T13:24:21.262Z,16.980186146928826
2023-01-10T13:27:19.481Z,17.02579119865559
2023-01-10T13:31:23.900Z,17.012302378151798
2023-01-10T13:34:18.695Z,17.037353046397858
2023-01-10T13:37:23.285Z,17.08231580162401
2023-01-10T13:43:36.347Z,17.16646044627414
2023-01-10T13:44:16.031Z,17.102227886057516
2023-01-10T13:47:58.118Z,17.085527427849957
2023-01-10T13:51:18.680Z,17.068184647580438
2023-01-10T13:54:25.823Z,17.101585560685
2023-01-10T13:57:52.178Z,17.102227886057516
2023-01-10T14:11:16.057Z,17.13498648608593
2023-01-10T14:14:21.030Z,17.161964165578773
2023-01-10T14:17:23.142Z,16.974405226516048
2023-01-10T14:21:24.298Z,16.93072717308032
2023-01-10T14:24:24.788Z,16.846582747059074
2023-01-10T14:27:19.595Z,16.83823254109966
2023-01-10T14:31:19.834Z,16.802904755159762
2023-01-10T14:34:20.962Z,16.765007690990114
2023-01-10T14:37:24.292Z,16.7104102534915
2023-01-10T14:41:19.612Z,16.668659294043845
2023-01-10T14:44:21.795Z,16.622412099853044
2023-01-10T14:47:33.952Z,16.520925284117492
2023-01-10T14:51:21.901Z,16.47146656063014
2023-01-10T14:54:20.151Z,16.36997991374228
2023-01-10T14:57:19.663Z,16.466327993502272
2023-01-10T15:01:22.628Z,16.34814102988785
2023-01-10T15:04:18.799Z,16.27620121437103
2023-01-10T15:07:16.382Z,16.24858147892528
2023-01-10T15:11:16.992Z,16.208115370084123
2023-01-10T15:14:20.826Z,16.072586152879467
2023-01-10T15:17:20.677Z,15.918429943400497
2023-01-10T15:21:20.584Z,15.76363167995587
2023-01-10T15:24:32.127Z,15.655722673289711
2023-01-10T15:27:16.327Z,15.560660083279071
2023-01-10T15:31:17.185Z,15.258772788945134
2023-01-10T15:34:18.826Z,15.22729949055074
2023-01-10T15:37:21.492Z,15.055802321751617
2023-01-10T15:41:19.169Z,14.920274825920297
2023-01-10T15:44:34.482Z,14.79245524048456
2023-01-10T15:51:25.483Z,14.459097470482174
2023-01-10T15:54:30.023Z,14.328067006070432
2023-01-10T15:57:25.405Z,14.186759854583306
2023-01-10T16:01:16.846Z,14.102617973473752
2023-01-10T16:04:17.330Z,13.997280155981207
2023-01-10T16:07:21.611Z,13.884234829366687
2023-01-10T16:11:21.485Z,13.803304738878797
2023-01-10T16:14:16.841Z,13.6382332701819
2023-01-10T16:17:16.877Z,13.550880396600496
2023-01-10T16:21:16.534Z,13.433339530324156
2023-01-10T16:24:20.029Z,13.34534455525145
2023-01-10T16:27:16.986Z,13.192477575209432
2023-01-10T16:31:16.244Z,13.04282233587146
2023-01-10T16:34:16.804Z,12.941339524340947
2023-01-10T16:37:16.577Z,12.81544961210202
2023-01-10T16:51:19.024Z,12.26436215453432
2023-01-10T16:54:20.708Z,12.10250493587373
2023-01-10T16:57:18.032Z,12.038918250410006
2023-01-10T17:01:19.021Z,11.938078850707097
2023-01-10T17:04:20.789Z,11.888622625578956
2023-01-10T17:07:16.956Z,11.806409739574246
2023-01-10T17:11:28.025Z,11.624000164796689
2023-01-10T17:14:18.980Z,11.466640086876941
2023-01-10T17:17:19.005Z,11.277808353683213
2023-01-10T17:21:19.337Z,11.157059016045242
2023-01-10T17:24:19.302Z,11.117237461216064
2023-01-10T17:27:19.914Z,10.984284977346487
2023-01-10T17:31:19.914Z,10.832064256814556
2023-01-10T17:34:17.172Z,10.748567767534405
2023-01-10T17:37:19.714Z,10.570656273637814
2023-01-10T17:41:18.842Z,10.444769651204933
2023-01-10T17:44:18.668Z,10.393387406538476
2023-01-10T17:47:18.368Z,10.330444196485132
2023-01-10T17:51:17.584Z,10.125557927444243
2023-01-10T17:54:22.661Z,10.079956344316543
2023-01-10T17:57:18.442Z,9.920672121158805
2023-01-10T18:01:24.830Z,9.828826909937197
2023-01-10T18:04:19.373Z,9.762672724501408
2023-01-10T18:07:18.304Z,9.690095858112908
2023-01-10T18:11:16.255Z,9.571275449996119
2023-01-10T18:14:51.622Z,9.528243232473324
2023-01-10T18:17:22.175Z,9.423552997473688
2023-01-10T18:21:25.110Z,9.371529060602189
2023-01-10T18:24:20.156Z,9.221237855014987
2023-01-10T18:27:31.938Z,9.193620267395545
2023-01-10T18:31:27.876Z,9.182059419260714
2023-01-10T18:34:21.467Z,9.064524213524782
2023-01-10T18:37:22.021Z,9.036264405347538
2023-01-10T18:41:27.416Z,8.915518051397886
2023-01-10T18:44:16.990Z,8.804405857052279
2023-01-10T18:47:16.837Z,8.765227601327933
2023-01-10T18:51:19.424Z,8.712561776032453
2023-01-10T18:54:16.746Z,8.618148726738672
2023-01-10T18:57:16.542Z,8.549426364898682
2023-01-10T19:01:18.429Z,8.43510329886667
2023-01-10T19:04:17.628Z,8.35738938680306
2023-01-10T19:07:16.374Z,8.286740433611794
2023-01-10T19:11:22.338Z,8.275821963936687
2023-01-10T19:14:27.365Z,8.268757072494282
2023-01-10T19:17:18.500Z,8.180124844787589
2023-01-10T19:21:16.946Z,8.100484366224645
2023-01-10T19:24:22.309Z,8.024697524133899
2023-01-10T19:27:18.679Z,7.972032128783849
2023-01-10T19:31:17.165Z,7.871197249833495
2023-01-10T19:34:16.584Z,7.8647746498758355
2023-01-10T19:37:16.364Z,7.760728593917156
2023-01-10T19:41:16.634Z,7.781923151192404
2023-01-10T19:44:17.269Z,7.662462983983369
2023-01-10T19:47:17.233Z,7.61236683165198
2023-01-10T19:51:16.059Z,7.54428748949731
2023-01-10T19:54:16.484Z,7.560986191334178
2023-01-10T19:57:16.403Z,7.465932083471216
2023-01-10T20:01:18.494Z,7.343261050951332
2023-01-10T20:04:17.476Z,7.293807330835352
2023-01-10T20:07:18.725Z,7.207745076999072
2023-01-10T20:11:17.288Z,7.24114235983734
2023-01-10T20:14:18.893Z,7.158291430765894
2023-01-10T20:17:16.301Z,7.078651849346715
2023-01-10T20:21:17.315Z,6.899463046805704
2023-01-10T20:24:19.101Z,6.920015149555638
2023-01-10T20:27:16.625Z,6.896251781171668
2023-01-10T20:31:18.496Z,6.893040515651319
2023-01-10T20:34:16.900Z,6.823677208160461
2023-01-10T20:37:16.732Z,6.824319460764309
2023-01-10T20:41:19.925Z,6.81211666206882
2023-01-10T20:44:22.538Z,6.748533684901486
2023-01-10T20:47:20.253Z,6.655407182626459
2023-01-10T20:51:20.586Z,6.640635401396139
2023-01-10T20:54:16.884Z,6.607238339656033
2023-01-10T20:57:18.064Z,6.5365907495699505
2023-01-10T21:01:28.852Z,6.483283968018895
2023-01-10T21:04:17.047Z,6.435757466305313
2023-01-10T21:07:17.636Z,6.468512214819202
2023-01-10T21:11:19.385Z,6.394653484904938
2023-01-10T21:14:17.468Z,6.290609115231291
2023-01-10T21:17:17.273Z,6.262992419867078
2023-01-10T21:21:18.391Z,6.2713416524625245
2023-01-10T21:24:16.733Z,6.209043550853676
2023-01-10T21:27:16.709Z,6.192987346033715
2023-01-10T21:31:18.276Z,6.143534253046164
2023-01-10T21:34:16.471Z,6.133258289055448
2023-01-10T21:37:16.679Z,6.096007929347979
2023-01-10T21:42:34.471Z,6.066464551492027
2023-01-10T21:44:17.153Z,6.06196882092272
2023-01-10T21:47:17.127Z,6.020222761991681
2023-01-10T21:51:16.649Z,5.994532889122274
2023-01-10T21:54:16.994Z,5.931592731342244
2023-01-10T21:57:21.971Z,5.939299687091261
2023-01-10T22:01:16.051Z,5.848100752701066
2023-01-10T22:04:17.357Z,5.819199701077105
2023-01-10T22:07:16.796Z,5.795436621084809
2023-01-10T22:11:16.058Z,5.766535586241025
2023-01-10T22:14:16.365Z,5.7376345606058745
2023-01-10T22:17:16.713Z,5.693319672517191
2023-01-10T22:21:17.537Z,5.702953341999091
2023-01-10T22:24:16.298Z,5.651573783252388
2023-01-10T22:27:16.743Z,5.636802165499193
2023-01-10T22:31:16.917Z,5.6400133865452515
2023-01-10T22:34:17.331Z,5.593129570559631
2023-01-10T22:37:17.275Z,5.517344823362601
2023-01-10T22:41:18.692Z,5.505784443763059
2023-01-10T22:44:19.239Z,5.433853226027077
2023-01-10T22:47:17.082Z,5.370913457301595
2023-01-10T22:51:18.703Z,5.370271214988679
2023-01-10T22:54:17.469Z,5.347792736901556
2023-01-10T22:57:17.201Z,5.300266830143028
2023-01-10T23:01:19.941Z,5.250814223871567
2023-01-10T23:04:20.322Z,5.199434921238572
2023-01-10T23:07:16.930Z,5.201361644562075
2023-01-10T23:11:18.873Z,5.177598726432552
2023-01-10T23:14:16.473Z,5.103098807245624
2023-01-10T23:17:16.556Z,5.0433704679541735
2023-01-10T23:21:17.149Z,4.986853365915977
2023-01-10T23:24:16.889Z,4.990064563951819
2023-01-10T23:27:16.994Z,4.945750041098018
2023-01-10T23:31:18.350Z,4.953456913082573
2023-01-10T23:34:16.627Z,4.8661124022685724
2023-01-10T23:37:16.507Z,4.844918526295805
2023-01-10T23:41:16.780Z,4.824366893718252
2023-01-10T23:44:16.323Z,4.788401547912509
2023-01-10T23:47:16.298Z,4.7588585959547345
2023-01-10T23:51:16.574Z,4.751793978433943
2023-01-10T23:54:17.550Z,4.672798747268098
2023-01-10T23:57:16.857Z,4.680505596060539
